sensor_id;sensor_type;location;lat;lon;timestamp;temperature;humidity
3794;DHT22;1912;51.358;12.282;2023-06-19T03:46:37;19.70;1.00
3794;DHT22;1912;51.358;12.282;2023-06-19T03:49:02;19.80;1.00
3794;DHT22;1912;51.358;12.282;2023-06-19T03:51:30;19.80;1.00
3794;DHT22;1912;51.358;12.282;2023-06-19T03:53:56;19.80;1.00
3794;DHT22;1912;51.358;12.282;2023-06-19T03:56:21;19.80;1.00
3794;DHT22;1912;51.358;12.282;2023-06-19T03:58:47;19.90;1.00
3794;DHT22;1912;51.358;12.282;2023-06-19T04:01:13;19.90;1.00
3794;DHT22;1912;51.358;12.282;2023-06-19T04:03:38;19.90;1.00
3794;DHT22;1912;51.358;12.282;2023-06-19T04:06:04;19.90;1.00
3794;DHT22;1912;51.358;12.282;2023-06-19T04:08:30;19.90;1.00
3794;DHT22;1912;51.358;12.282;2023-06-19T04:10:55;19.90;1.00
3794;DHT22;1912;51.358;12.282;2023-06-19T04:13:21;20.00;1.00
3794;DHT22;1912;51.358;12.282;2023-06-19T04:15:47;20.10;1.00
3794;DHT22;1912;51.358;12.282;2023-06-19T04:18:12;20.10;1.00
3794;DHT22;1912;51.358;12.282;2023-06-19T04:20:38;20.10;1.00
3794;DHT22;1912;51.358;12.282;2023-06-19T04:23:05;20.10;1.00
3794;DHT22;1912;51.358;12.282;2023-06-19T04:25:31;20.10;1.00
3794;DHT22;1912;51.358;12.282;2023-06-19T04:27:56;20.10;1.00
3794;DHT22;1912;51.358;12.282;2023-06-19T04:30:22;20.20;1.00
3794;DHT22;1912;51.358;12.282;2023-06-19T04:32:48;20.20;1.00
3794;DHT22;1912;51.358;12.282;2023-06-19T04:35:13;20.20;1.00
3794;DHT22;1912;51.358;12.282;2023-06-19T04:37:39;20.30;1.00
3794;DHT22;1912;51.358;12.282;2023-06-19T04:40:05;20.30;1.00
3794;DHT22;1912;51.358;12.282;2023-06-19T04:42:33;20.40;1.00
3794;DHT22;1912;51.358;12.282;2023-06-19T04:44:58;20.40;1.00
3794;DHT22;1912;51.358;12.282;2023-06-19T04:47:24;20.50;1.00
3794;DHT22;1912;51.358;12.282;2023-06-19T04:49:50;20.50;1.00
3794;DHT22;1912;51.358;12.282;2023-06-19T04:52:16;20.50;1.00
3794;DHT22;1912;51.358;12.282;2023-06-19T04:54:44;20.50;1.00
3794;DHT22;1912;51.358;12.282;2023-06-19T04:57:09;20.60;1.00
3794;DHT22;1912;51.358;12.282;2023-06-19T04:59:35;20.60;1.00
3794;DHT22;1912;51.358;12.282;2023-06-19T05:02:02;20.70;1.00
3794;DHT22;1912;51.358;12.282;2023-06-19T05:04:27;20.70;1.00
3794;DHT22;1912;51.358;12.282;2023-06-19T05:06:55;20.80;1.00
3794;DHT22;1912;51.358;12.282;2023-06-19T05:09:21;20.80;1.00
3794;DHT22;1912;51.358;12.282;2023-06-19T05:11:46;20.80;1.00
3794;DHT22;1912;51.358;12.282;2023-06-19T05:14:12;20.80;1.00
3794;DHT22;1912;51.358;12.282;2023-06-19T05:16:39;20.70;1.00
3794;DHT22;1912;51.358;12.282;2023-06-19T05:19:05;20.80;1.00
3794;DHT22;1912;51.358;12.282;2023-06-19T05:21:30;20.80;1.00
3794;DHT22;1912;51.358;12.282;2023-06-19T05:23:56;20.70;1.00
3794;DHT22;1912;51.358;12.282;2023-06-19T05:26:22;20.80;1.00
3794;DHT22;1912;51.358;12.282;2023-06-19T05:28:49;20.70;1.00
3794;DHT22;1912;51.358;12.282;2023-06-19T05:31:14;20.70;1.00
3794;DHT22;1912;51.358;12.282;2023-06-19T05:33:41;20.80;1.00
3794;DHT22;1912;51.358;12.282;2023-06-19T05:36:06;20.80;1.00
3794;DHT22;1912;51.358;12.282;2023-06-19T05:38:32;20.80;1.00
3794;DHT22;1912;51.358;12.282;2023-06-19T05:40:58;20.80;1.00
3794;DHT22;1912;51.358;12.282;2023-06-19T05:43:25;20.80;1.00
3794;DHT22;1912;51.358;12.282;2023-06-19T05:45:52;20.80;1.00
3794;DHT22;1912;51.358;12.282;2023-06-19T05:48:18;20.80;1.00
3794;DHT22;1912;51.358;12.282;2023-06-19T05:50:44;20.80;1.00
3794;DHT22;1912;51.358;12.282;2023-06-19T05:53:09;20.70;1.00
3794;DHT22;1912;51.358;12.282;2023-06-19T05:55:35;20.70;1.00
3794;DHT22;1912;51.358;12.282;2023-06-19T05:58:02;20.70;1.00
3794;DHT22;1912;51.358;12.282;2023-06-19T06:00:29;20.60;1.00
3794;DHT22;1912;51.358;12.282;2023-06-19T06:02:56;20.60;1.00
3794;DHT22;1912;51.358;12.282;2023-06-19T06:05:25;20.50;1.00
3794;DHT22;1912;51.358;12.282;2023-06-19T06:07:52;20.50;1.00
3794;DHT22;1912;51.358;12.282;2023-06-19T06:10:20;20.50;1.00
3794;DHT22;1912;51.358;12.282;2023-06-19T06:12:46;20.50;1.00
3794;DHT22;1912;51.358;12.282;2023-06-19T06:15:13;20.40;1.00
3794;DHT22;1912;51.358;12.282;2023-06-19T06:17:39;20.40;1.00
3794;DHT22;1912;51.358;12.282;2023-06-19T06:20:05;20.30;1.00
3794;DHT22;1912;51.358;12.282;2023-06-19T06:22:36;20.20;1.00
3794;DHT22;1912;51.358;12.282;2023-06-19T06:25:02;20.20;1.00
3794;DHT22;1912;51.358;12.282;2023-06-19T06:27:28;20.10;1.00
3794;DHT22;1912;51.358;12.282;2023-06-19T06:29:53;20.10;1.00
3794;DHT22;1912;51.358;12.282;2023-06-19T06:32:19;20.00;1.00
3794;DHT22;1912;51.358;12.282;2023-06-19T06:34:45;19.90;1.00
3794;DHT22;1912;51.358;12.282;2023-06-19T06:37:10;19.80;1.00
3794;DHT22;1912;51.358;12.282;2023-06-19T06:39:36;19.80;1.00
3794;DHT22;1912;51.358;12.282;2023-06-19T06:42:02;19.80;1.00
3794;DHT22;1912;51.358;12.282;2023-06-19T06:44:27;19.60;1.00
3794;DHT22;1912;51.358;12.282;2023-06-19T06:46:53;19.60;1.00
3794;DHT22;1912;51.358;12.282;2023-06-19T06:49:20;19.50;1.00
3794;DHT22;1912;51.358;12.282;2023-06-19T06:51:47;19.60;1.00
3794;DHT22;1912;51.358;12.282;2023-06-19T06:54:13;19.70;1.00
3794;DHT22;1912;51.358;12.282;2023-06-19T06:56:38;19.70;1.00
3794;DHT22;1912;51.358;12.282;2023-06-19T06:59:04;19.70;1.00
3794;DHT22;1912;51.358;12.282;2023-06-19T07:01:30;19.70;1.00
3794;DHT22;1912;51.358;12.282;2023-06-19T07:03:55;19.80;1.00
3794;DHT22;1912;51.358;12.282;2023-06-19T07:06:21;19.70;1.00
3794;DHT22;1912;51.358;12.282;2023-06-19T07:08:46;19.70;1.00
3794;DHT22;1912;51.358;12.282;2023-06-19T07:11:13;19.70;1.00
3794;DHT22;1912;51.358;12.282;2023-06-19T07:13:39;19.70;1.00
3794;DHT22;1912;51.358;12.282;2023-06-19T07:16:07;19.80;1.00
3794;DHT22;1912;51.358;12.282;2023-06-19T07:18:32;19.90;1.00
3794;DHT22;1912;51.358;12.282;2023-06-19T07:21:00;19.90;1.00
3794;DHT22;1912;51.358;12.282;2023-06-19T07:23:27;20.00;1.00
3794;DHT22;1912;51.358;12.282;2023-06-19T07:25:53;20.20;1.00
3794;DHT22;1912;51.358;12.282;2023-06-19T07:28:18;20.20;1.00
3794;DHT22;1912;51.358;12.282;2023-06-19T07:30:44;20.30;1.00
3794;DHT22;1912;51.358;12.282;2023-06-19T07:33:12;20.40;1.00
3794;DHT22;1912;51.358;12.282;2023-06-19T07:35:38;20.50;1.00
3794;DHT22;1912;51.358;12.282;2023-06-19T07:38:04;20.60;1.00
3794;DHT22;1912;51.358;12.282;2023-06-19T07:40:29;20.70;1.00
3794;DHT22;1912;51.358;12.282;2023-06-19T07:42:55;20.80;1.00
3794;DHT22;1912;51.358;12.282;2023-06-19T07:45:21;21.00;1.00
3794;DHT22;1912;51.358;12.282;2023-06-19T07:47:55;21.10;1.00
3794;DHT22;1912;51.358;12.282;2023-06-19T07:50:21;21.20;1.00
3794;DHT22;1912;51.358;12.282;2023-06-19T07:52:47;21.40;1.00
3794;DHT22;1912;51.358;12.282;2023-06-19T07:55:13;21.50;1.00
3794;DHT22;1912;51.358;12.282;2023-06-19T07:57:38;21.70;1.00
3794;DHT22;1912;51.358;12.282;2023-06-19T08:00:05;21.80;1.00
3794;DHT22;1912;51.358;12.282;2023-06-19T08:02:36;21.90;1.00
3794;DHT22;1912;51.358;12.282;2023-06-19T08:05:02;21.90;1.00
3794;DHT22;1912;51.358;12.282;2023-06-19T08:07:28;22.00;1.00
3794;DHT22;1912;51.358;12.282;2023-06-19T08:09:53;22.10;1.00
3794;DHT22;1912;51.358;12.282;2023-06-19T08:12:19;22.20;1.00
3794;DHT22;1912;51.358;12.282;2023-06-19T08:14:45;22.30;1.00
3794;DHT22;1912;51.358;12.282;2023-06-19T08:17:10;22.40;1.00
3794;DHT22;1912;51.358;12.282;2023-06-19T08:19:36;22.50;1.00
3794;DHT22;1912;51.358;12.282;2023-06-19T08:22:05;22.70;1.00
3794;DHT22;1912;51.358;12.282;2023-06-19T08:24:31;22.80;1.00
3794;DHT22;1912;51.358;12.282;2023-06-19T08:26:56;23.00;1.00
3794;DHT22;1912;51.358;12.282;2023-06-19T08:29:22;23.10;1.00
3794;DHT22;1912;51.358;12.282;2023-06-19T08:31:48;23.30;1.00
3794;DHT22;1912;51.358;12.282;2023-06-19T08:34:14;23.50;1.00
3794;DHT22;1912;51.358;12.282;2023-06-19T08:36:40;23.70;1.00
3794;DHT22;1912;51.358;12.282;2023-06-19T08:39:05;23.90;1.00
3794;DHT22;1912;51.358;12.282;2023-06-19T08:41:33;24.20;1.00
3794;DHT22;1912;51.358;12.282;2023-06-19T08:44:02;24.50;1.00
3794;DHT22;1912;51.358;12.282;2023-06-19T08:46:29;24.80;1.00
3794;DHT22;1912;51.358;12.282;2023-06-19T08:48:55;25.00;1.00
3794;DHT22;1912;51.358;12.282;2023-06-19T08:51:21;25.20;1.00
3794;DHT22;1912;51.358;12.282;2023-06-19T08:53:49;25.50;1.00
3794;DHT22;1912;51.358;12.282;2023-06-19T08:56:19;25.90;1.00
3794;DHT22;1912;51.358;12.282;2023-06-19T08:58:45;26.10;1.00
3794;DHT22;1912;51.358;12.282;2023-06-19T09:01:10;26.10;1.00
3794;DHT22;1912;51.358;12.282;2023-06-19T09:03:37;26.20;1.00
3794;DHT22;1912;51.358;12.282;2023-06-19T09:06:04;26.60;1.00
3794;DHT22;1912;51.358;12.282;2023-06-19T09:08:31;26.60;1.00
3794;DHT22;1912;51.358;12.282;2023-06-19T09:10:58;26.60;1.00
3794;DHT22;1912;51.358;12.282;2023-06-19T09:13:28;27.20;1.00
3794;DHT22;1912;51.358;12.282;2023-06-19T09:16:02;27.10;1.00
3794;DHT22;1912;51.358;12.282;2023-06-19T09:18:44;27.80;1.00
3794;DHT22;1912;51.358;12.282;2023-06-19T09:21:21;28.40;1.00
3794;DHT22;1912;51.358;12.282;2023-06-19T09:23:50;28.20;1.00
3794;DHT22;1912;51.358;12.282;2023-06-19T09:26:19;28.10;1.00
3794;DHT22;1912;51.358;12.282;2023-06-19T09:28:45;28.30;1.00
3794;DHT22;1912;51.358;12.282;2023-06-19T09:31:12;29.10;1.00
3794;DHT22;1912;51.358;12.282;2023-06-19T09:33:39;29.00;1.00
3794;DHT22;1912;51.358;12.282;2023-06-19T09:36:06;29.40;1.00
3794;DHT22;1912;51.358;12.282;2023-06-19T09:38:34;29.80;1.00
3794;DHT22;1912;51.358;12.282;2023-06-19T09:41:05;29.70;1.00
3794;DHT22;1912;51.358;12.282;2023-06-19T09:43:39;29.50;1.00
3794;DHT22;1912;51.358;12.282;2023-06-19T09:46:09;29.50;1.00
3794;DHT22;1912;51.358;12.282;2023-06-19T09:48:41;29.20;1.00
3794;DHT22;1912;51.358;12.282;2023-06-19T09:51:23;29.30;1.00
3794;DHT22;1912;51.358;12.282;2023-06-19T09:53:57;28.90;1.00
3794;DHT22;1912;51.358;12.282;2023-06-19T09:56:24;28.90;1.00
3794;DHT22;1912;51.358;12.282;2023-06-19T09:58:52;28.60;1.00
3794;DHT22;1912;51.358;12.282;2023-06-19T10:01:19;28.50;1.00
3794;DHT22;1912;51.358;12.282;2023-06-19T10:03:45;28.70;1.00
3794;DHT22;1912;51.358;12.282;2023-06-19T10:06:15;29.20;1.00
3794;DHT22;1912;51.358;12.282;2023-06-19T10:08:43;29.60;1.00
3794;DHT22;1912;51.358;12.282;2023-06-19T10:11:10;29.80;1.00
3794;DHT22;1912;51.358;12.282;2023-06-19T10:13:38;30.50;1.00
3794;DHT22;1912;51.358;12.282;2023-06-19T10:16:27;30.70;1.00
3794;DHT22;1912;51.358;12.282;2023-06-19T10:18:53;30.60;1.00
3794;DHT22;1912;51.358;12.282;2023-06-19T10:21:20;30.60;1.00
3794;DHT22;1912;51.358;12.282;2023-06-19T10:23:57;31.10;1.00
3794;DHT22;1912;51.358;12.282;2023-06-19T10:26:33;31.50;1.00
3794;DHT22;1912;51.358;12.282;2023-06-19T10:28:59;30.90;1.00
3794;DHT22;1912;51.358;12.282;2023-06-19T10:31:25;30.30;1.00
3794;DHT22;1912;51.358;12.282;2023-06-19T10:33:53;30.10;1.00
3794;DHT22;1912;51.358;12.282;2023-06-19T10:36:21;29.90;1.00
3794;DHT22;1912;51.358;12.282;2023-06-19T10:38:48;29.50;1.00
3794;DHT22;1912;51.358;12.282;2023-06-19T10:41:18;29.30;1.00
3794;DHT22;1912;51.358;12.282;2023-06-19T10:44:05;29.40;1.00
3794;DHT22;1912;51.358;12.282;2023-06-19T10:46:35;29.60;1.00
3794;DHT22;1912;51.358;12.282;2023-06-19T10:49:04;29.80;1.00
3794;DHT22;1912;51.358;12.282;2023-06-19T10:51:33;29.80;1.00
3794;DHT22;1912;51.358;12.282;2023-06-19T10:53:59;30.00;1.00
3794;DHT22;1912;51.358;12.282;2023-06-19T10:56:25;29.80;1.00
3794;DHT22;1912;51.358;12.282;2023-06-19T10:59:02;29.80;1.00
3794;DHT22;1912;51.358;12.282;2023-06-19T11:01:35;29.90;1.00
3794;DHT22;1912;51.358;12.282;2023-06-19T11:04:13;29.60;1.00
3794;DHT22;1912;51.358;12.282;2023-06-19T11:06:41;29.50;1.00
3794;DHT22;1912;51.358;12.282;2023-06-19T11:09:10;29.50;1.00
3794;DHT22;1912;51.358;12.282;2023-06-19T11:11:44;30.00;1.00
3794;DHT22;1912;51.358;12.282;2023-06-19T11:14:12;30.30;1.00
3794;DHT22;1912;51.358;12.282;2023-06-19T11:16:40;29.90;1.00
3794;DHT22;1912;51.358;12.282;2023-06-19T11:19:08;29.80;1.00
3794;DHT22;1912;51.358;12.282;2023-06-19T11:21:38;29.20;1.00
3794;DHT22;1912;51.358;12.282;2023-06-19T11:24:06;29.50;1.00
3794;DHT22;1912;51.358;12.282;2023-06-19T11:26:38;29.50;1.00
3794;DHT22;1912;51.358;12.282;2023-06-19T11:29:21;29.30;1.00
3794;DHT22;1912;51.358;12.282;2023-06-19T11:31:48;29.30;1.00
3794;DHT22;1912;51.358;12.282;2023-06-19T11:34:15;29.50;1.00
3794;DHT22;1912;51.358;12.282;2023-06-19T11:36:42;29.40;1.00
3794;DHT22;1912;51.358;12.282;2023-06-19T11:39:13;29.90;1.00
3794;DHT22;1912;51.358;12.282;2023-06-19T11:41:40;29.70;1.00
3794;DHT22;1912;51.358;12.282;2023-06-19T11:44:07;29.60;1.00
3794;DHT22;1912;51.358;12.282;2023-06-19T11:46:36;29.90;1.00
3794;DHT22;1912;51.358;12.282;2023-06-19T11:49:15;29.70;1.00
3794;DHT22;1912;51.358;12.282;2023-06-19T11:51:43;29.90;1.00
3794;DHT22;1912;51.358;12.282;2023-06-19T11:54:10;29.60;1.00
3794;DHT22;1912;51.358;12.282;2023-06-19T11:56:38;29.20;1.00
3794;DHT22;1912;51.358;12.282;2023-06-19T11:59:04;29.20;1.00
3794;DHT22;1912;51.358;12.282;2023-06-19T12:01:32;29.70;1.00
3794;DHT22;1912;51.358;12.282;2023-06-19T12:03:59;30.20;1.00
3794;DHT22;1912;51.358;12.282;2023-06-19T12:06:25;30.00;1.00
3794;DHT22;1912;51.358;12.282;2023-06-19T12:08:50;30.20;1.00
3794;DHT22;1912;51.358;12.282;2023-06-19T12:11:16;30.50;1.00
3794;DHT22;1912;51.358;12.282;2023-06-19T12:13:42;30.60;1.00
3794;DHT22;1912;51.358;12.282;2023-06-19T12:16:09;30.90;1.00
3794;DHT22;1912;51.358;12.282;2023-06-19T12:18:36;31.10;1.00
3794;DHT22;1912;51.358;12.282;2023-06-19T12:21:02;31.00;1.00
3794;DHT22;1912;51.358;12.282;2023-06-19T12:23:28;31.80;1.00
3794;DHT22;1912;51.358;12.282;2023-06-19T12:25:54;32.30;1.00
3794;DHT22;1912;51.358;12.282;2023-06-19T12:28:20;32.50;1.00
3794;DHT22;1912;51.358;12.282;2023-06-19T12:30:46;32.90;1.00
3794;DHT22;1912;51.358;12.282;2023-06-19T12:33:13;32.30;1.00
3794;DHT22;1912;51.358;12.282;2023-06-19T12:35:40;32.60;1.00
3794;DHT22;1912;51.358;12.282;2023-06-19T12:38:07;33.00;1.00
3794;DHT22;1912;51.358;12.282;2023-06-19T12:40:33;33.40;1.00
3794;DHT22;1912;51.358;12.282;2023-06-19T12:42:59;33.40;1.00
3794;DHT22;1912;51.358;12.282;2023-06-19T12:45:24;33.50;1.00
3794;DHT22;1912;51.358;12.282;2023-06-19T12:47:50;33.70;1.00
3794;DHT22;1912;51.358;12.282;2023-06-19T12:50:16;33.80;1.00
3794;DHT22;1912;51.358;12.282;2023-06-19T12:52:41;34.30;1.00
3794;DHT22;1912;51.358;12.282;2023-06-19T12:55:07;34.30;1.00
3794;DHT22;1912;51.358;12.282;2023-06-19T12:57:33;33.60;1.00
3794;DHT22;1912;51.358;12.282;2023-06-19T12:59:59;33.00;1.00
3794;DHT22;1912;51.358;12.282;2023-06-19T13:02:25;32.90;1.00
3794;DHT22;1912;51.358;12.282;2023-06-19T13:04:52;32.70;1.00
3794;DHT22;1912;51.358;12.282;2023-06-19T13:07:18;32.50;1.00
3794;DHT22;1912;51.358;12.282;2023-06-19T13:09:43;32.20;1.00
3794;DHT22;1912;51.358;12.282;2023-06-19T13:12:09;32.20;1.00
3794;DHT22;1912;51.358;12.282;2023-06-19T13:14:35;32.60;1.00
3794;DHT22;1912;51.358;12.282;2023-06-19T13:17:00;33.30;1.00
3794;DHT22;1912;51.358;12.282;2023-06-19T13:19:26;33.20;1.00
3794;DHT22;1912;51.358;12.282;2023-06-19T13:21:52;33.30;1.00
3794;DHT22;1912;51.358;12.282;2023-06-19T13:24:18;34.00;1.00
3794;DHT22;1912;51.358;12.282;2023-06-19T13:26:44;33.90;1.00
3794;DHT22;1912;51.358;12.282;2023-06-19T13:29:11;33.70;1.00
3794;DHT22;1912;51.358;12.282;2023-06-19T13:31:37;33.40;1.00
3794;DHT22;1912;51.358;12.282;2023-06-19T13:34:03;32.60;1.00
3794;DHT22;1912;51.358;12.282;2023-06-19T13:36:28;33.00;1.00
3794;DHT22;1912;51.358;12.282;2023-06-19T13:38:54;33.40;1.00
3794;DHT22;1912;51.358;12.282;2023-06-19T13:41:20;33.30;1.00
3794;DHT22;1912;51.358;12.282;2023-06-19T13:43:49;33.40;1.00
3794;DHT22;1912;51.358;12.282;2023-06-19T13:46:16;33.10;1.00
3794;DHT22;1912;51.358;12.282;2023-06-19T13:48:41;32.80;1.00
3794;DHT22;1912;51.358;12.282;2023-06-19T13:51:07;32.80;1.00
3794;DHT22;1912;51.358;12.282;2023-06-19T13:53:33;33.10;1.00
3794;DHT22;1912;51.358;12.282;2023-06-19T13:55:58;33.00;1.00
3794;DHT22;1912;51.358;12.282;2023-06-19T13:58:24;33.30;1.00
3794;DHT22;1912;51.358;12.282;2023-06-19T14:00:50;32.90;1.00
3794;DHT22;1912;51.358;12.282;2023-06-19T14:03:16;33.00;1.00
3794;DHT22;1912;51.358;12.282;2023-06-19T14:05:41;32.90;1.00
3794;DHT22;1912;51.358;12.282;2023-06-19T14:08:08;32.70;1.00
3794;DHT22;1912;51.358;12.282;2023-06-19T14:10:34;32.70;1.00
3794;DHT22;1912;51.358;12.282;2023-06-19T14:13:00;32.70;1.00
3794;DHT22;1912;51.358;12.282;2023-06-19T14:15:26;32.60;1.00
3794;DHT22;1912;51.358;12.282;2023-06-19T14:17:52;32.10;1.00
3794;DHT22;1912;51.358;12.282;2023-06-19T14:20:18;31.80;1.00
3794;DHT22;1912;51.358;12.282;2023-06-19T14:22:43;32.00;1.00
3794;DHT22;1912;51.358;12.282;2023-06-19T14:25:09;32.00;1.00
3794;DHT22;1912;51.358;12.282;2023-06-19T14:27:35;32.20;1.00
3794;DHT22;1912;51.358;12.282;2023-06-19T14:30:00;32.50;1.00
3794;DHT22;1912;51.358;12.282;2023-06-19T14:32:26;32.60;1.00
3794;DHT22;1912;51.358;12.282;2023-06-19T14:34:52;32.50;1.00
3794;DHT22;1912;51.358;12.282;2023-06-19T14:37:17;32.20;1.00
3794;DHT22;1912;51.358;12.282;2023-06-19T14:39:43;32.20;1.00
3794;DHT22;1912;51.358;12.282;2023-06-19T14:42:09;32.50;1.00
3794;DHT22;1912;51.358;12.282;2023-06-19T14:44:36;32.50;1.00
3794;DHT22;1912;51.358;12.282;2023-06-19T14:47:01;32.70;1.00
3794;DHT22;1912;51.358;12.282;2023-06-19T14:49:27;32.70;1.00
3794;DHT22;1912;51.358;12.282;2023-06-19T14:51:53;32.80;1.00
3794;DHT22;1912;51.358;12.282;2023-06-19T14:54:19;32.50;1.00
3794;DHT22;1912;51.358;12.282;2023-06-19T14:56:45;32.60;1.00
3794;DHT22;1912;51.358;12.282;2023-06-19T14:59:13;32.60;1.00
3794;DHT22;1912;51.358;12.282;2023-06-19T15:01:39;32.80;1.00
3794;DHT22;1912;51.358;12.282;2023-06-19T15:04:05;32.80;1.00
3794;DHT22;1912;51.358;12.282;2023-06-19T15:06:32;32.80;1.00
3794;DHT22;1912;51.358;12.282;2023-06-19T15:08:58;33.10;1.00
3794;DHT22;1912;51.358;12.282;2023-06-19T15:11:23;33.10;1.00
3794;DHT22;1912;51.358;12.282;2023-06-19T15:13:49;33.00;1.00
3794;DHT22;1912;51.358;12.282;2023-06-19T15:16:15;32.60;1.00
3794;DHT22;1912;51.358;12.282;2023-06-19T15:18:43;32.80;1.00
3794;DHT22;1912;51.358;12.282;2023-06-19T15:21:10;33.10;1.00
3794;DHT22;1912;51.358;12.282;2023-06-19T15:23:35;33.10;1.00
3794;DHT22;1912;51.358;12.282;2023-06-19T15:26:01;33.30;1.00
3794;DHT22;1912;51.358;12.282;2023-06-19T15:28:27;33.70;1.00
3794;DHT22;1912;51.358;12.282;2023-06-19T15:30:52;34.00;1.00
3794;DHT22;1912;51.358;12.282;2023-06-19T15:33:18;34.30;1.00
3794;DHT22;1912;51.358;12.282;2023-06-19T15:35:44;34.50;1.00
3794;DHT22;1912;51.358;12.282;2023-06-19T15:38:10;34.10;1.00
3794;DHT22;1912;51.358;12.282;2023-06-19T15:40:35;34.00;1.00
3794;DHT22;1912;51.358;12.282;2023-06-19T15:43:03;33.60;1.00
3794;DHT22;1912;51.358;12.282;2023-06-19T15:45:29;33.10;1.00
3794;DHT22;1912;51.358;12.282;2023-06-19T15:47:55;32.70;1.00
3794;DHT22;1912;51.358;12.282;2023-06-19T15:50:21;32.50;1.00
3794;DHT22;1912;51.358;12.282;2023-06-19T15:52:46;32.10;1.00
3794;DHT22;1912;51.358;12.282;2023-06-19T15:55:13;31.90;1.00
3794;DHT22;1912;51.358;12.282;2023-06-19T15:57:39;32.10;1.00
3794;DHT22;1912;51.358;12.282;2023-06-19T16:00:05;32.10;1.00
3794;DHT22;1912;51.358;12.282;2023-06-19T16:02:31;32.00;1.00
3794;DHT22;1912;51.358;12.282;2023-06-19T16:04:57;32.10;1.00
3794;DHT22;1912;51.358;12.282;2023-06-19T16:07:23;32.20;1.00
3794;DHT22;1912;51.358;12.282;2023-06-19T16:09:48;32.10;1.00
3794;DHT22;1912;51.358;12.282;2023-06-19T16:12:14;31.90;1.00
3794;DHT22;1912;51.358;12.282;2023-06-19T16:14:39;31.70;1.00
3794;DHT22;1912;51.358;12.282;2023-06-19T16:17:05;31.60;1.00
3794;DHT22;1912;51.358;12.282;2023-06-19T16:19:31;31.80;1.00
3794;DHT22;1912;51.358;12.282;2023-06-19T16:21:57;31.80;1.00
3794;DHT22;1912;51.358;12.282;2023-06-19T16:24:23;32.10;1.00
3794;DHT22;1912;51.358;12.282;2023-06-19T16:26:49;31.90;1.00
3794;DHT22;1912;51.358;12.282;2023-06-19T16:29:15;31.80;1.00
3794;DHT22;1912;51.358;12.282;2023-06-19T16:31:43;31.70;1.00
3794;DHT22;1912;51.358;12.282;2023-06-19T16:34:08;31.40;1.00
3794;DHT22;1912;51.358;12.282;2023-06-19T16:36:34;31.30;1.00
3794;DHT22;1912;51.358;12.282;2023-06-19T16:39:00;31.40;1.00
3794;DHT22;1912;51.358;12.282;2023-06-19T16:41:26;31.40;1.00
3794;DHT22;1912;51.358;12.282;2023-06-19T16:43:52;31.40;1.00
3794;DHT22;1912;51.358;12.282;2023-06-19T16:46:17;31.30;1.00
3794;DHT22;1912;51.358;12.282;2023-06-19T16:48:43;31.40;1.00
3794;DHT22;1912;51.358;12.282;2023-06-19T16:51:09;31.20;1.00
3794;DHT22;1912;51.358;12.282;2023-06-19T16:53:35;31.20;1.00
3794;DHT22;1912;51.358;12.282;2023-06-19T16:56:00;31.20;1.00
3794;DHT22;1912;51.358;12.282;2023-06-19T16:58:26;31.20;1.00
3794;DHT22;1912;51.358;12.282;2023-06-19T17:00:53;31.10;1.00
3794;DHT22;1912;51.358;12.282;2023-06-19T17:03:19;30.90;1.00
3794;DHT22;1912;51.358;12.282;2023-06-19T17:05:45;30.90;1.00
3794;DHT22;1912;51.358;12.282;2023-06-19T17:08:11;30.80;1.00
3794;DHT22;1912;51.358;12.282;2023-06-19T17:10:37;30.80;1.00
3794;DHT22;1912;51.358;12.282;2023-06-19T17:13:03;30.70;1.00
3794;DHT22;1912;51.358;12.282;2023-06-19T17:15:29;30.70;1.00
3794;DHT22;1912;51.358;12.282;2023-06-19T17:18:00;30.60;1.00
3794;DHT22;1912;51.358;12.282;2023-06-19T17:20:27;30.20;1.00
3794;DHT22;1912;51.358;12.282;2023-06-19T17:22:53;30.10;1.00
3794;DHT22;1912;51.358;12.282;2023-06-19T17:25:19;30.10;1.00
3794;DHT22;1912;51.358;12.282;2023-06-19T17:27:45;30.00;1.00
3794;DHT22;1912;51.358;12.282;2023-06-19T17:30:11;29.90;1.00
3794;DHT22;1912;51.358;12.282;2023-06-19T17:32:37;29.80;1.00
3794;DHT22;1912;51.358;12.282;2023-06-19T17:35:05;29.80;1.00
3794;DHT22;1912;51.358;12.282;2023-06-19T17:37:37;29.80;1.00
3794;DHT22;1912;51.358;12.282;2023-06-19T17:40:05;29.80;1.00
3794;DHT22;1912;51.358;12.282;2023-06-19T17:42:32;29.40;1.00
3794;DHT22;1912;51.358;12.282;2023-06-19T17:44:59;28.90;1.00
3794;DHT22;1912;51.358;12.282;2023-06-19T17:47:25;28.70;1.00
3794;DHT22;1912;51.358;12.282;2023-06-19T17:49:52;28.60;1.00
3794;DHT22;1912;51.358;12.282;2023-06-19T17:52:17;28.70;1.00
3794;DHT22;1912;51.358;12.282;2023-06-19T17:54:44;28.70;1.00
3794;DHT22;1912;51.358;12.282;2023-06-19T17:57:16;28.60;1.00
3794;DHT22;1912;51.358;12.282;2023-06-19T17:59:42;28.50;1.00
3794;DHT22;1912;51.358;12.282;2023-06-19T18:02:07;28.50;1.00
3794;DHT22;1912;51.358;12.282;2023-06-19T18:04:33;28.50;1.00
3794;DHT22;1912;51.358;12.282;2023-06-19T18:06:59;28.70;1.00
3794;DHT22;1912;51.358;12.282;2023-06-19T18:09:25;28.70;1.00
3794;DHT22;1912;51.358;12.282;2023-06-19T18:11:50;28.70;1.00
3794;DHT22;1912;51.358;12.282;2023-06-19T18:14:16;28.60;1.00
3794;DHT22;1912;51.358;12.282;2023-06-19T18:16:45;28.50;1.00
3794;DHT22;1912;51.358;12.282;2023-06-19T18:19:11;28.20;1.00
3794;DHT22;1912;51.358;12.282;2023-06-19T18:21:37;28.10;1.00
3794;DHT22;1912;51.358;12.282;2023-06-19T18:24:03;28.00;1.00
3794;DHT22;1912;51.358;12.282;2023-06-19T18:26:28;28.00;1.00
3794;DHT22;1912;51.358;12.282;2023-06-19T18:28:54;28.00;1.00
3794;DHT22;1912;51.358;12.282;2023-06-19T18:31:20;28.10;1.00
3794;DHT22;1912;51.358;12.282;2023-06-19T18:33:45;28.10;1.00
3794;DHT22;1912;51.358;12.282;2023-06-19T18:36:11;27.80;1.00
3794;DHT22;1912;51.358;12.282;2023-06-19T18:38:36;27.70;1.00
3794;DHT22;1912;51.358;12.282;2023-06-19T18:41:02;27.90;1.00
3794;DHT22;1912;51.358;12.282;2023-06-19T18:43:28;27.90;1.00
3794;DHT22;1912;51.358;12.282;2023-06-19T18:45:53;28.00;1.00
3794;DHT22;1912;51.358;12.282;2023-06-19T18:48:19;28.10;1.00
3794;DHT22;1912;51.358;12.282;2023-06-19T18:50:47;28.00;1.00
3794;DHT22;1912;51.358;12.282;2023-06-19T18:53:13;28.00;1.00
3794;DHT22;1912;51.358;12.282;2023-06-19T18:55:38;28.00;1.00
3794;DHT22;1912;51.358;12.282;2023-06-19T18:58:04;27.90;1.00
3794;DHT22;1912;51.358;12.282;2023-06-19T19:00:30;27.90;1.00
3794;DHT22;1912;51.358;12.282;2023-06-19T19:02:56;27.90;1.00
3794;DHT22;1912;51.358;12.282;2023-06-19T19:05:22;27.80;1.00
3794;DHT22;1912;51.358;12.282;2023-06-19T19:07:47;27.90;1.00
3794;DHT22;1912;51.358;12.282;2023-06-19T19:10:13;27.90;1.00
3794;DHT22;1912;51.358;12.282;2023-06-19T19:12:39;27.80;1.00
3794;DHT22;1912;51.358;12.282;2023-06-19T19:15:05;27.80;1.00
3794;DHT22;1912;51.358;12.282;2023-06-19T19:17:31;27.70;1.00
3794;DHT22;1912;51.358;12.282;2023-06-19T19:19:56;27.60;1.00
3794;DHT22;1912;51.358;12.282;2023-06-19T19:22:22;27.50;1.00
3794;DHT22;1912;51.358;12.282;2023-06-19T19:24:48;27.50;1.00
3794;DHT22;1912;51.358;12.282;2023-06-19T19:27:13;27.40;1.00
3794;DHT22;1912;51.358;12.282;2023-06-19T19:29:39;27.30;1.00
3794;DHT22;1912;51.358;12.282;2023-06-19T19:32:05;27.20;1.00
3794;DHT22;1912;51.358;12.282;2023-06-19T19:34:31;27.00;1.00
3794;DHT22;1912;51.358;12.282;2023-06-19T19:36:57;26.90;1.00
3794;DHT22;1912;51.358;12.282;2023-06-19T19:39:22;26.70;1.00
3794;DHT22;1912;51.358;12.282;2023-06-19T19:41:48;26.70;1.00
3794;DHT22;1912;51.358;12.282;2023-06-19T19:44:14;26.60;1.00